Time;durP1;ratioP1;P1;durP2;ratioP2;P2;SDS_P1;SDS_P2;PMS_P1;PMS_P2;Temp;Humidity;BMP_temperature;BMP_pressure;BME280_temperature;BME280_humidity;BME280_pressure;Samples;Min_cycle;Max_cycle;Signal;HPM_P1;HPM_P2
2022/07/17 00:02:08;;;;;;;5.00;2.05;;;;;;;16.84;71.43;99600.08;1816632;79;21100;-76
2022/07/17 00:04:35;;;;;;;2.62;2.20;;;;;;;16.82;71.61;99598.00;1816623;78;21088;-76
2022/07/17 00:07:02;;;;;;;2.85;2.00;;;;;;;16.79;71.78;99606.14;1816613;78;21100;-76
2022/07/17 00:09:29;;;;;;;4.90;2.12;;;;;;;16.79;72.04;99609.64;1816709;79;20986;-76
2022/07/17 00:11:55;;;;;;;3.55;1.75;;;;;;;16.77;72.31;99605.39;1816656;78;21624;-76
2022/07/17 00:14:22;;;;;;;5.65;2.30;;;;;;;16.74;72.41;99601.09;1831185;77;21954;-77
2022/07/17 00:16:49;;;;;;;4.17;2.20;;;;;;;16.71;72.63;99598.16;1817849;77;21028;-77
2022/07/17 00:19:15;;;;;;;4.05;1.85;;;;;;;16.69;72.96;99606.70;1813909;79;21071;-75
2022/07/17 00:21:42;;;;;;;6.03;2.60;;;;;;;16.67;73.05;99601.08;1813391;79;21051;-77
2022/07/17 00:24:10;;;;;;;4.60;1.87;;;;;;;16.67;73.20;99604.58;1813493;79;21006;-76
2022/07/17 00:26:37;;;;;;;7.90;2.40;;;;;;;16.67;73.28;99594.44;1813780;79;21120;-76
2022/07/17 00:29:04;;;;;;;3.20;2.08;;;;;;;16.68;73.59;99585.05;1813366;79;21931;-77
2022/07/17 00:31:31;;;;;;;8.58;2.02;;;;;;;16.68;73.86;99589.03;1813373;78;21511;-76
2022/07/17 00:33:57;;;;;;;4.55;1.90;;;;;;;16.68;74.21;99582.87;1813593;78;22111;-76
2022/07/17 00:36:24;;;;;;;4.35;1.72;;;;;;;16.67;74.50;99585.98;1813653;79;22023;-76
2022/07/17 00:38:50;;;;;;;5.78;2.08;;;;;;;16.63;74.90;99580.48;1813520;78;21087;-76
2022/07/17 00:41:16;;;;;;;5.50;1.90;;;;;;;16.59;75.42;99578.09;1824421;78;21600;-76
2022/07/17 00:43:45;;;;;;;5.30;1.77;;;;;;;16.54;75.47;99562.41;1830268;78;21114;-76
2022/07/17 00:46:12;;;;;;;2.12;1.92;;;;;;;16.54;75.65;99562.41;1830191;78;21043;-76
2022/07/17 00:48:39;;;;;;;1.92;1.60;;;;;;;16.53;76.00;99572.67;1830638;78;21039;-76
2022/07/17 00:51:07;;;;;;;3.65;2.02;;;;;;;16.50;76.44;99582.14;1830192;78;21178;-76
2022/07/17 00:53:33;;;;;;;4.20;2.33;;;;;;;16.44;76.92;99589.13;1830673;78;21047;-76
2022/07/17 00:56:02;;;;;;;2.45;1.92;;;;;;;16.35;77.38;99590.03;1738796;82;21114;-76
2022/07/17 00:58:29;;;;;;;2.65;1.90;;;;;;;16.32;77.79;99585.38;1761162;81;21060;-76
2022/07/17 01:00:56;;;;;;;2.65;1.70;;;;;;;16.30;77.83;99572.19;1760810;81;21067;-76
2022/07/17 01:03:24;;;;;;;3.83;1.87;;;;;;;16.31;77.71;99561.12;1738832;81;21145;-76
2022/07/17 01:05:51;;;;;;;2.30;2.10;;;;;;;16.34;77.89;99564.45;1760838;81;21099;-76
2022/07/17 01:08:18;;;;;;;2.25;2.05;;;;;;;16.36;78.01;99569.67;1738684;82;21059;-76
2022/07/17 01:10:45;;;;;;;5.28;1.95;;;;;;;16.35;78.33;99573.26;1760879;81;21631;-76
2022/07/17 01:13:12;;;;;;;3.52;1.92;;;;;;;16.33;78.55;99575.16;1760977;81;21068;-76
2022/07/17 01:15:39;;;;;;;2.30;2.10;;;;;;;16.28;78.73;99563.46;1785311;80;21132;-76
2022/07/17 01:18:10;;;;;;;3.60;2.37;;;;;;;16.27;78.78;99564.88;1714728;83;21935;-77
2022/07/17 01:20:39;;;;;;;2.33;2.05;;;;;;;16.27;79.00;99560.44;1713582;83;21130;-77
2022/07/17 01:23:06;;;;;;;4.33;2.10;;;;;;;16.28;79.11;99554.17;1713695;83;21127;-77
2022/07/17 01:25:33;;;;;;;3.05;2.08;;;;;;;16.27;79.48;99551.15;1712690;83;21082;-76
2022/07/17 01:28:00;;;;;;;3.52;2.05;;;;;;;16.22;79.71;99557.16;1714209;83;21103;-77
2022/07/17 01:30:27;;;;;;;3.47;2.10;;;;;;;16.16;80.02;99554.40;1713922;83;21704;-76
2022/07/17 01:32:53;;;;;;;3.90;2.25;;;;;;;16.12;80.09;99551.55;1714123;83;22234;-77
2022/07/17 01:35:20;;;;;;;2.62;1.87;;;;;;;16.13;80.35;99548.41;1713993;83;21131;-76
2022/07/17 01:37:47;;;;;;;2.12;1.92;;;;;;;16.11;80.52;99552.97;1714661;83;21055;-76
2022/07/17 01:40:14;;;;;;;4.95;2.83;;;;;;;16.12;80.70;99553.33;1713991;83;21178;-76
2022/07/17 01:42:47;;;;;;;2.80;2.15;;;;;;;16.10;81.08;99545.94;1714530;83;21051;-76
2022/07/17 01:45:17;;;;;;;3.62;1.92;;;;;;;16.08;81.13;99549.15;1743757;82;21123;-76
2022/07/17 01:47:43;;;;;;;3.77;2.20;;;;;;;16.04;81.42;99555.55;1714359;83;21572;-76
2022/07/17 01:50:12;;;;;;;2.22;2.00;;;;;;;16.00;81.52;99560.67;1714161;83;21003;-76
2022/07/17 01:52:40;;;;;;;2.20;2.00;;;;;;;15.96;81.71;99564.81;1714260;83;21818;-76
2022/07/17 01:55:08;;;;;;;3.27;2.72;;;;;;;15.97;81.83;99559.91;1714387;83;20989;-76
2022/07/17 01:57:35;;;;;;;4.17;2.00;;;;;;;15.98;81.82;99562.92;1747381;82;21091;-76
2022/07/17 02:00:04;;;;;;;3.25;1.90;;;;;;;15.97;81.91;99563.89;1714229;83;21150;-77
2022/07/17 02:02:33;;;;;;;3.55;2.37;;;;;;;15.98;81.97;99560.27;1713803;83;21500;-76
2022/07/17 02:04:59;;;;;;;4.42;2.45;;;;;;;16.00;81.95;99564.65;1786758;80;21628;-76
2022/07/17 02:07:26;;;;;;;4.97;2.27;;;;;;;16.02;82.04;99566.73;1714128;83;21527;-76
2022/07/17 02:09:53;;;;;;;5.72;2.40;;;;;;;15.97;82.13;99563.89;1714027;83;21648;-76
2022/07/17 02:12:20;;;;;;;2.83;2.47;;;;;;;15.95;82.22;99569.76;1713829;83;21463;-76
2022/07/17 02:14:46;;;;;;;3.52;2.35;;;;;;;15.95;82.33;99575.06;1740539;80;21178;-76
2022/07/17 02:17:13;;;;;;;4.78;2.33;;;;;;;15.98;82.22;99565.58;1769365;81;21140;-76
2022/07/17 02:19:40;;;;;;;3.67;2.30;;;;;;;16.03;82.17;99548.56;1767759;81;21087;-77
2022/07/17 02:22:07;;;;;;;6.12;2.30;;;;;;;16.05;82.23;99554.14;1769643;81;21037;-76
2022/07/17 02:24:33;;;;;;;4.97;2.47;;;;;;;16.03;82.27;99556.52;1761078;81;21103;-76
2022/07/17 02:27:00;;;;;;;3.35;2.37;;;;;;;16.02;82.44;99549.48;1801424;79;20973;-74
2022/07/17 02:29:26;;;;;;;2.47;2.27;;;;;;;16.01;82.45;99534.53;1798601;79;21507;-77
2022/07/17 02:31:53;;;;;;;4.20;2.47;;;;;;;15.99;82.60;99535.94;1838033;77;21479;-76
2022/07/17 02:34:20;;;;;;;3.92;2.20;;;;;;;15.95;82.71;99535.70;1833922;78;21046;-77
2022/07/17 02:36:47;;;;;;;18.90;3.80;;;;;;;15.93;82.95;99546.41;1804991;79;21106;-77
2022/07/17 02:39:13;;;;;;;5.08;2.60;;;;;;;15.92;83.07;99544.72;1804867;79;22055;-76
2022/07/17 02:41:40;;;;;;;3.95;2.58;;;;;;;15.93;83.17;99559.67;1804813;78;21124;-76
2022/07/17 02:44:07;;;;;;;6.90;2.50;;;;;;;15.91;83.31;99557.59;1804985;79;21024;-77
2022/07/17 02:46:34;;;;;;;5.03;2.65;;;;;;;15.90;83.36;99557.22;1804968;78;21108;-77
2022/07/17 02:49:01;;;;;;;3.40;2.22;;;;;;;15.91;83.32;99540.34;1805159;79;21040;-76
2022/07/17 02:51:28;;;;;;;10.82;2.35;;;;;;;15.93;83.29;99527.84;1805317;78;21035;-76
2022/07/17 02:53:54;;;;;;;3.47;3.00;;;;;;;15.95;83.13;99524.64;1804932;78;21111;-77
2022/07/17 02:56:21;;;;;;;5.25;2.45;;;;;;;15.96;83.05;99527.66;1805230;79;21113;-76
2022/07/17 02:58:47;;;;;;;4.05;2.40;;;;;;;15.97;82.92;99537.34;1804792;78;20980;-76
2022/07/17 03:01:15;;;;;;;7.47;2.45;;;;;;;16.00;82.81;99540.77;1805278;77;21590;-77
2022/07/17 03:03:41;;;;;;;2.95;2.60;;;;;;;16.00;82.70;99538.11;1805039;79;21298;-77
2022/07/17 03:06:08;;;;;;;3.37;2.58;;;;;;;15.97;82.62;99521.43;1804957;78;21127;-76
2022/07/17 03:08:36;;;;;;;6.62;2.77;;;;;;;16.00;82.52;99538.11;1804857;79;20985;-77
2022/07/17 03:11:03;;;;;;;3.72;2.83;;;;;;;16.00;82.49;99536.30;1805235;78;21047;-77
2022/07/17 03:13:30;;;;;;;3.67;2.50;;;;;;;16.00;82.43;99550.05;1804929;78;20997;-76
2022/07/17 03:15:57;;;;;;;8.15;3.02;;;;;;;15.97;82.39;99549.29;1812233;78;21067;-76
2022/07/17 03:18:24;;;;;;;5.62;3.33;;;;;;;15.97;82.21;99525.89;1813480;78;21074;-76
2022/07/17 03:20:51;;;;;;;6.30;3.05;;;;;;;15.99;81.83;99527.98;1813329;79;21071;-77
2022/07/17 03:23:18;;;;;;;4.25;2.95;;;;;;;16.00;81.48;99547.40;1813580;78;20972;-77
2022/07/17 03:25:46;;;;;;;8.38;3.25;;;;;;;15.98;81.31;99560.27;1813472;78;21077;-76
2022/07/17 03:28:13;;;;;;;5.65;2.67;;;;;;;15.96;81.19;99559.51;1813598;79;20964;-77
2022/07/17 03:30:41;;;;;;;3.77;2.60;;;;;;;15.94;81.11;99562.73;1813871;79;21103;-76
2022/07/17 03:33:08;;;;;;;8.15;2.85;;;;;;;15.97;80.85;99553.27;1813398;79;21047;-76
2022/07/17 03:35:34;;;;;;;3.85;2.62;;;;;;;16.02;80.69;99542.85;1813823;79;21114;-77
2022/07/17 03:38:01;;;;;;;3.65;2.37;;;;;;;16.05;80.53;99541.36;1813365;78;21417;-76
2022/07/17 03:40:28;;;;;;;3.27;2.77;;;;;;;16.07;80.14;99540.34;1813571;78;21471;-76
2022/07/17 03:42:54;;;;;;;4.95;3.15;;;;;;;16.11;79.96;99539.69;1813756;78;21510;-76
2022/07/17 03:45:20;;;;;;;7.92;3.30;;;;;;;16.14;79.71;99538.20;1813307;79;21054;-77
2022/07/17 03:47:47;;;;;;;6.47;2.92;;;;;;;16.19;79.46;99537.45;1813813;78;20999;-76
2022/07/17 03:50:14;;;;;;;4.28;3.10;;;;;;;16.22;79.29;99534.60;1813336;78;21016;-77
2022/07/17 03:52:40;;;;;;;3.30;3.02;;;;;;;16.21;79.10;99542.20;1813841;79;20995;-77
2022/07/17 03:55:08;;;;;;;4.37;3.15;;;;;;;16.19;79.12;99542.77;1813222;78;21928;-76
2022/07/17 03:57:35;;;;;;;5.20;2.95;;;;;;;16.15;79.10;99544.75;1813479;79;21039;-76
2022/07/17 04:00:01;;;;;;;4.08;2.95;;;;;;;16.13;79.14;99540.45;1790854;79;21095;-76
2022/07/17 04:02:30;;;;;;;5.28;2.55;;;;;;;16.11;79.21;99538.37;1813731;78;21043;-77
2022/07/17 04:04:57;;;;;;;5.37;3.20;;;;;;;16.09;79.29;99539.78;1813715;79;21015;-76
2022/07/17 04:07:26;;;;;;;4.20;3.20;;;;;;;16.12;79.46;99537.41;1813383;78;21773;-76
2022/07/17 04:09:58;;;;;;;4.70;2.70;;;;;;;16.16;79.42;99538.95;1813253;79;21019;-77
2022/07/17 04:12:26;;;;;;;6.37;3.10;;;;;;;16.22;79.10;99539.91;1813404;79;21023;-75
2022/07/17 04:14:53;;;;;;;5.08;3.30;;;;;;;16.30;78.91;99540.81;1813761;79;21154;-77
2022/07/17 04:17:19;;;;;;;6.35;3.65;;;;;;;16.35;78.76;99543.56;1813394;79;21040;-76
2022/07/17 04:19:47;;;;;;;8.80;3.55;;;;;;;16.41;78.92;99549.02;1813379;78;21277;-77
2022/07/17 04:22:13;;;;;;;7.97;3.72;;;;;;;16.47;79.02;99553.95;1813724;79;21058;-76
2022/07/17 04:24:40;;;;;;;7.30;3.60;;;;;;;16.53;78.95;99552.75;1813425;79;21538;-77
2022/07/17 04:27:08;;;;;;;4.15;2.95;;;;;;;16.60;78.82;99554.09;1813220;78;20973;-76
2022/07/17 04:29:36;;;;;;;3.98;2.62;;;;;;;16.65;77.65;99557.33;1813406;79;21558;-76
2022/07/17 04:32:03;;;;;;;6.62;2.35;;;;;;;16.65;75.55;99549.36;1809711;78;21085;-77
2022/07/17 04:34:32;;;;;;;3.33;2.58;;;;;;;16.67;75.52;99562.08;1813659;79;21491;-76
2022/07/17 04:37:01;;;;;;;4.08;2.20;;;;;;;16.71;75.17;99550.82;1813455;78;20953;-76
2022/07/17 04:39:27;;;;;;;6.95;2.35;;;;;;;16.77;74.63;99550.44;1813844;78;21111;-77
2022/07/17 04:41:54;;;;;;;5.20;2.47;;;;;;;16.86;74.66;99546.39;1813251;79;20988;-77
2022/07/17 04:44:21;;;;;;;7.35;2.52;;;;;;;16.96;74.27;99547.55;1813447;79;21170;-76
2022/07/17 04:46:48;;;;;;;4.30;1.87;;;;;;;17.07;73.73;99537.61;1813596;79;21008;-77
2022/07/17 04:49:14;;;;;;;2.72;1.90;;;;;;;17.18;71.28;99531.16;1813374;78;21051;-76
2022/07/17 04:51:42;;;;;;;2.83;1.90;;;;;;;17.28;72.04;99539.41;1813291;78;20983;-76
2022/07/17 04:54:08;;;;;;;2.15;1.42;;;;;;;17.39;69.83;99551.56;1813381;78;21027;-76
2022/07/17 04:56:34;;;;;;;5.85;1.95;;;;;;;17.48;69.07;99540.82;1813274;78;21759;-76
2022/07/17 04:59:01;;;;;;;3.12;1.70;;;;;;;17.55;68.27;99539.95;1813548;78;21019;-76
2022/07/17 05:01:27;;;;;;;5.58;2.47;;;;;;;17.66;68.87;99545.47;1813265;79;21102;-77
2022/07/17 05:03:54;;;;;;;4.25;2.05;;;;;;;17.76;68.63;99542.59;1813573;79;21613;-77
2022/07/17 05:06:20;;;;;;;4.15;1.77;;;;;;;17.87;68.00;99542.41;1813249;79;21039;-76
2022/07/17 05:08:47;;;;;;;5.05;1.67;;;;;;;17.96;64.33;99543.16;1813213;79;21114;-77
2022/07/17 05:11:14;;;;;;;4.03;1.80;;;;;;;18.04;63.87;99538.19;1813616;79;21059;-76
2022/07/17 05:13:42;;;;;;;5.30;1.67;;;;;;;18.10;63.35;99545.76;1813489;78;21007;-77
2022/07/17 05:16:09;;;;;;;4.30;1.70;;;;;;;18.13;62.68;99554.04;1813148;78;21044;-77
2022/07/17 05:18:36;;;;;;;3.22;1.98;;;;;;;18.07;62.28;99551.31;1813461;79;21031;-76
2022/07/17 05:21:03;;;;;;;2.15;1.95;;;;;;;17.99;61.86;99548.29;1813666;79;21103;-77
2022/07/17 05:23:29;;;;;;;4.37;2.10;;;;;;;17.92;62.05;99548.28;1813494;78;20921;-77
2022/07/17 05:25:57;;;;;;;3.35;1.75;;;;;;;17.88;62.04;99548.12;1813886;79;21930;-77
2022/07/17 05:28:24;;;;;;;2.60;1.92;;;;;;;17.83;62.74;99541.23;1813624;78;21566;-76
2022/07/17 05:30:50;;;;;;;3.45;1.72;;;;;;;17.83;61.81;99545.23;1813821;78;21075;-76
2022/07/17 05:33:17;;;;;;;2.60;1.87;;;;;;;17.79;61.09;99526.44;1813516;78;22718;-76
2022/07/17 05:35:43;;;;;;;5.83;2.02;;;;;;;17.76;61.45;99525.29;1813624;78;21530;-76
2022/07/17 05:38:11;;;;;;;2.87;1.87;;;;;;;17.76;61.74;99521.30;1813586;78;21471;-76
2022/07/17 05:40:39;;;;;;;4.80;2.33;;;;;;;17.79;62.01;99528.25;1813677;79;21069;-76
2022/07/17 05:43:05;;;;;;;2.83;1.70;;;;;;;17.83;61.68;99533.25;1813570;79;21499;-77
2022/07/17 05:45:32;;;;;;;4.70;2.00;;;;;;;17.87;61.71;99545.06;1813871;79;21268;-77
2022/07/17 05:47:59;;;;;;;3.90;1.65;;;;;;;17.88;60.37;99549.45;1813415;78;21027;-77
2022/07/17 05:50:25;;;;;;;8.65;1.70;;;;;;;17.87;60.21;99548.61;1813878;78;21103;-76
2022/07/17 05:52:53;;;;;;;6.62;1.60;;;;;;;17.83;59.58;99550.55;1813570;79;21074;-77
2022/07/17 05:55:20;;;;;;;3.47;1.80;;;;;;;17.77;57.24;99550.97;1813593;78;21146;-76
2022/07/17 05:57:46;;;;;;;4.50;2.05;;;;;;;17.68;58.57;99551.53;1813597;78;21131;-76
2022/07/17 06:00:13;;;;;;;2.22;1.50;;;;;;;17.60;59.32;99561.35;1813823;79;21027;-76
2022/07/17 06:02:41;;;;;;;5.22;1.80;;;;;;;17.54;60.52;99556.89;1813563;78;21015;-76
2022/07/17 06:05:08;;;;;;;3.27;1.75;;;;;;;17.45;60.19;99564.49;1814039;79;20987;-76
2022/07/17 06:07:36;;;;;;;4.47;1.90;;;;;;;17.33;60.93;99569.70;1813575;79;20977;-77
2022/07/17 06:10:05;;;;;;;4.90;2.08;;;;;;;17.23;62.27;99573.40;1813578;78;21117;-77
2022/07/17 06:12:31;;;;;;;5.08;1.95;;;;;;;17.17;63.07;99575.13;1813881;79;20988;-76
2022/07/17 06:14:58;;;;;;;8.28;1.77;;;;;;;17.11;63.10;99571.02;1813590;78;21494;-76
2022/07/17 06:17:25;;;;;;;12.10;1.90;;;;;;;17.07;62.62;99577.48;1813493;79;21000;-76
2022/07/17 06:19:51;;;;;;;2.65;2.10;;;;;;;17.03;63.37;99582.58;1813743;79;21043;-77
2022/07/17 06:22:19;;;;;;;3.37;1.65;;;;;;;17.03;64.56;99583.46;1808338;78;21087;-76
2022/07/17 06:24:47;;;;;;;1.90;1.62;;;;;;;17.06;64.44;99581.95;1786855;79;21100;-76
2022/07/17 06:27:15;;;;;;;7.75;2.40;;;;;;;17.08;64.31;99592.02;1786751;79;21481;-76
2022/07/17 06:29:42;;;;;;;5.03;1.70;;;;;;;17.13;63.44;99598.84;1786735;79;21106;-76
2022/07/17 06:32:09;;;;;;;3.33;1.47;;;;;;;17.14;62.51;99603.22;1786673;80;21478;-77
2022/07/17 06:34:37;;;;;;;2.50;1.60;;;;;;;17.08;62.87;99603.98;1786718;79;21474;-77
2022/07/17 06:37:03;;;;;;;2.17;1.40;;;;;;;16.97;61.73;99607.74;1789082;78;20981;-76
2022/07/17 06:39:30;;;;;;;3.62;2.00;;;;;;;16.74;61.69;99613.53;1813725;78;21015;-77
2022/07/17 06:41:57;;;;;;;4.58;1.90;;;;;;;16.50;62.64;99614.02;1813464;79;21090;-76
2022/07/17 06:44:24;;;;;;;4.17;1.85;;;;;;;16.31;63.22;99623.52;1813466;79;21042;-76
2022/07/17 06:46:51;;;;;;;5.75;2.02;;;;;;;16.18;63.84;99627.31;1813571;78;21129;-75
2022/07/17 06:49:18;;;;;;;3.42;1.52;;;;;;;16.09;63.48;99630.02;1813504;79;21101;-77
2022/07/17 06:51:45;;;;;;;3.67;1.92;;;;;;;16.06;63.75;99639.95;1813570;78;21011;-77
2022/07/17 06:54:12;;;;;;;1.30;1.20;;;;;;;16.01;64.67;99640.20;1813711;79;21350;-76
2022/07/17 06:56:41;;;;;;;2.50;1.42;;;;;;;15.95;64.30;99648.04;1813558;78;20983;-76
2022/07/17 06:59:08;;;;;;;4.05;1.42;;;;;;;15.86;64.29;99648.52;1813929;78;21479;-77
2022/07/17 07:01:36;;;;;;;3.72;1.20;;;;;;;15.75;64.34;99654.84;1813627;78;21515;-77
2022/07/17 07:04:03;;;;;;;3.70;1.50;;;;;;;15.67;64.42;99651.73;1813830;78;21604;-77
2022/07/17 07:06:30;;;;;;;3.25;1.80;;;;;;;15.63;64.57;99652.86;1813493;78;21031;-77
2022/07/17 07:08:58;;;;;;;13.68;1.60;;;;;;;15.68;65.39;99646.84;1813734;79;21012;-77
2022/07/17 07:11:25;;;;;;;2.30;1.60;;;;;;;15.76;65.96;99656.59;1813447;79;21123;-77
2022/07/17 07:13:51;;;;;;;3.37;1.55;;;;;;;15.77;66.36;99664.95;1813811;79;21082;-77
2022/07/17 07:16:20;;;;;;;3.47;1.70;;;;;;;15.71;66.44;99663.92;1813581;78;21395;-77
2022/07/17 07:18:47;;;;;;;7.12;1.10;;;;;;;15.60;66.97;99677.28;1813433;78;21023;-76
2022/07/17 07:21:14;;;;;;;2.27;1.30;;;;;;;15.44;67.16;99671.06;1813708;79;20992;-77
2022/07/17 07:23:41;;;;;;;4.05;1.60;;;;;;;15.32;67.19;99679.66;1813717;78;21077;-76
2022/07/17 07:26:07;;;;;;;2.45;1.57;;;;;;;15.15;67.90;99678.73;1813516;79;21087;-76
2022/07/17 07:28:34;;;;;;;2.35;2.15;;;;;;;15.05;68.52;99669.53;1813566;79;21484;-77
2022/07/17 07:31:01;;;;;;;2.20;1.55;;;;;;;15.02;69.02;99669.69;1813868;79;21051;-77
2022/07/17 07:33:27;;;;;;;7.60;2.65;;;;;;;15.01;69.53;99678.55;1813212;79;21555;-76
2022/07/17 07:35:54;;;;;;;3.77;2.92;;;;;;;14.99;69.40;99668.03;1814092;79;21101;-76
2022/07/17 07:38:20;;;;;;;3.75;2.62;;;;;;;15.01;69.50;99660.01;1813294;79;20993;-76
2022/07/17 07:40:47;;;;;;;3.27;1.65;;;;;;;15.10;69.43;99664.86;1813776;79;21090;-76
2022/07/17 07:43:14;;;;;;;2.17;1.47;;;;;;;15.16;70.15;99668.53;1813533;78;21491;-77
2022/07/17 07:45:40;;;;;;;2.02;1.60;;;;;;;15.18;70.03;99666.66;1813995;79;21054;-77
2022/07/17 07:48:07;;;;;;;2.67;2.37;;;;;;;15.18;70.95;99670.63;1813550;79;21123;-76
2022/07/17 07:50:33;;;;;;;5.97;2.20;;;;;;;15.15;71.50;99677.41;1813641;78;21062;-76
2022/07/17 07:53:00;;;;;;;3.95;1.70;;;;;;;15.11;71.72;99681.13;1813289;79;20973;-76
2022/07/17 07:55:27;;;;;;;2.08;1.60;;;;;;;15.09;71.50;99678.19;1813556;78;21075;-76
2022/07/17 07:58:07;;;;;;;1.87;1.70;;;;;;;15.17;71.79;99676.85;1813862;78;20968;-76
2022/07/17 08:00:35;;;;;;;4.97;1.70;;;;;;;15.24;71.52;99683.55;1813085;78;21248;-75
2022/07/17 08:03:02;;;;;;;1.98;1.72;;;;;;;15.24;71.34;99677.39;1813798;79;21055;-76
2022/07/17 08:05:29;;;;;;;3.35;1.75;;;;;;;15.23;71.58;99677.88;1813294;79;21093;-76
2022/07/17 08:07:56;;;;;;;3.55;1.90;;;;;;;15.24;72.09;99673.42;1813653;78;21039;-76
2022/07/17 08:10:23;;;;;;;2.47;1.82;;;;;;;15.33;71.94;99670.76;1813517;79;21079;-76
2022/07/17 08:12:50;;;;;;;4.15;1.50;;;;;;;15.48;72.16;99675.25;1813379;79;21797;-77
2022/07/17 08:15:20;;;;;;;3.22;1.37;;;;;;;15.72;71.98;99677.58;1813532;78;21007;-75
2022/07/17 08:17:48;;;;;;;1.60;1.50;;;;;;;16.00;70.81;99675.63;1810654;79;21099;-77
2022/07/17 08:20:15;;;;;;;3.00;1.55;;;;;;;16.21;68.79;99673.61;1802824;79;21020;-76
2022/07/17 08:22:43;;;;;;;1.90;1.30;;;;;;;16.31;68.56;99668.16;1803276;79;21059;-76
2022/07/17 08:25:10;;;;;;;2.33;1.75;;;;;;;16.40;67.38;99669.92;1803190;79;21509;-76
2022/07/17 08:27:38;;;;;;;1.70;1.50;;;;;;;16.45;67.02;99674.50;1803287;79;21539;-77
2022/07/17 08:30:07;;;;;;;1.52;1.00;;;;;;;16.43;66.49;99673.74;1803279;79;20988;-76
2022/07/17 08:32:34;;;;;;;1.95;1.70;;;;;;;16.41;66.40;99667.63;1803543;79;21783;-77
2022/07/17 08:35:00;;;;;;;2.15;1.50;;;;;;;16.39;66.11;99669.53;1804333;78;20976;-76
2022/07/17 08:37:26;;;;;;;1.35;1.12;;;;;;;16.40;66.89;99666.78;1813484;78;21102;-76
2022/07/17 08:39:53;;;;;;;1.40;1.30;;;;;;;16.50;65.79;99653.84;1813594;78;21038;-76
2022/07/17 08:42:19;;;;;;;0.98;0.93;;;;;;;16.69;65.18;99660.28;1813636;78;21047;-76
2022/07/17 08:44:46;;;;;;;1.12;0.78;;;;;;;16.83;64.16;99654.19;1813507;79;21046;-76
2022/07/17 08:47:13;;;;;;;1.37;1.17;;;;;;;17.00;63.00;99662.05;1813420;79;21518;-76
2022/07/17 08:49:45;;;;;;;2.20;0.93;;;;;;;17.17;62.47;99668.19;1813662;78;21696;-76
2022/07/17 08:52:12;;;;;;;1.95;0.95;;;;;;;17.28;60.17;99664.38;1813580;78;21015;-77
2022/07/17 08:54:39;;;;;;;1.35;1.22;;;;;;;17.34;60.11;99669.34;1813804;79;21014;-76
2022/07/17 08:57:06;;;;;;;3.17;1.67;;;;;;;17.35;60.61;99662.21;1813723;79;21004;-76
2022/07/17 08:59:32;;;;;;;1.45;1.00;;;;;;;17.34;58.14;99660.04;1813632;78;21004;-76
2022/07/17 09:02:00;;;;;;;1.17;1.02;;;;;;;17.30;60.00;99651.00;1813612;79;21729;-77
2022/07/17 09:04:27;;;;;;;2.95;1.60;;;;;;;17.38;59.16;99653.60;1813540;79;21518;-75
2022/07/17 09:07:02;;;;;;;1.25;1.00;;;;;;;17.51;57.59;99656.83;1813734;78;21596;-76
2022/07/17 09:09:29;;;;;;;1.65;0.80;;;;;;;17.60;55.47;99654.47;1813627;78;21180;-76
2022/07/17 09:12:04;;;;;;;2.60;0.90;;;;;;;17.66;53.92;99653.71;1813840;78;21572;-76
2022/07/17 09:14:38;;;;;;;0.80;0.80;;;;;;;17.74;55.88;99656.27;1812989;78;21128;-77
2022/07/17 09:17:06;;;;;;;0.75;0.60;;;;;;;17.90;54.42;99660.66;1813736;79;21019;-77
2022/07/17 09:19:39;;;;;;;0.70;0.70;;;;;;;17.91;51.25;99652.58;1791668;79;21051;-76
2022/07/17 09:22:11;;;;;;;1.17;0.80;;;;;;;17.92;50.62;99657.42;1813369;78;21600;-76
2022/07/17 09:24:48;;;;;;;0.80;0.60;;;;;;;18.00;50.29;99657.80;1813613;78;21027;-76
2022/07/17 09:27:26;;;;;;;0.50;0.50;;;;;;;18.13;46.96;99660.55;1813825;79;21101;-77
2022/07/17 09:29:57;;;;;;;0.80;0.55;;;;;;;18.16;48.20;99644.38;1813276;78;21598;-77
2022/07/17 09:32:26;;;;;;;1.07;0.78;;;;;;;18.22;49.30;99645.30;1814072;78;21047;-77
2022/07/17 09:34:54;;;;;;;0.57;0.57;;;;;;;18.31;46.82;99642.06;1813779;79;21078;-77
2022/07/17 09:37:23;;;;;;;1.17;0.75;;;;;;;18.40;47.92;99650.41;1813766;78;21031;-77
2022/07/17 09:39:51;;;;;;;1.30;0.82;;;;;;;18.47;47.52;99649.89;1813651;78;21555;-77
2022/07/17 09:42:29;;;;;;;6.47;0.80;;;;;;;18.49;46.12;99653.34;1813825;79;21051;-77
2022/07/17 09:45:06;;;;;;;3.12;0.68;;;;;;;18.43;48.22;99643.07;1813707;78;21035;-77
2022/07/17 09:47:36;;;;;;;1.07;0.80;;;;;;;18.48;47.94;99652.95;1813800;79;21078;-77
2022/07/17 09:50:06;;;;;;;1.22;0.70;;;;;;;18.61;48.84;99669.45;1813838;79;21046;-77
2022/07/17 09:52:37;;;;;;;1.22;0.70;;;;;;;18.69;48.84;99651.16;1813431;78;21124;-77
2022/07/17 09:55:04;;;;;;;7.12;1.02;;;;;;;18.80;49.08;99645.97;1813716;79;21039;-76
2022/07/17 09:57:33;;;;;;;7.37;1.77;;;;;;;18.93;48.62;99648.23;1813589;79;21051;-77
2022/07/17 10:00:03;;;;;;;1.05;0.60;;;;;;;19.06;49.90;99638.93;1814112;79;21118;-77
2022/07/17 10:02:32;;;;;;;0.98;0.70;;;;;;;19.21;49.27;99636.16;1813494;78;21584;-77
2022/07/17 10:04:58;;;;;;;1.32;0.80;;;;;;;19.40;49.53;99635.73;1814007;78;22210;-77
2022/07/17 10:07:25;;;;;;;1.12;0.80;;;;;;;19.55;48.38;99634.69;1813358;78;21527;-77
2022/07/17 10:09:52;;;;;;;1.52;0.70;;;;;;;19.62;49.44;99635.95;1813449;78;21454;-77
2022/07/17 10:12:18;;;;;;;1.15;0.62;;;;;;;19.71;50.39;99638.94;1813576;79;21016;-77
2022/07/17 10:14:47;;;;;;;2.75;0.60;;;;;;;19.75;47.97;99635.11;1813932;78;21075;-77
2022/07/17 10:17:18;;;;;;;0.93;0.70;;;;;;;19.73;48.70;99626.34;1807536;78;21614;-77
2022/07/17 10:19:50;;;;;;;1.12;0.60;;;;;;;19.80;46.82;99638.31;1825124;78;21028;-77
2022/07/17 10:22:17;;;;;;;0.82;0.80;;;;;;;19.79;48.24;99628.61;1825241;78;21127;-77
2022/07/17 10:24:55;;;;;;;0.85;0.70;;;;;;;19.82;47.56;99633.70;1825033;78;21025;-77
2022/07/17 10:27:28;;;;;;;3.12;0.80;;;;;;;19.85;48.53;99626.81;1825474;78;21523;-78
2022/07/17 10:30:08;;;;;;;1.00;0.50;;;;;;;19.86;46.71;99648.56;1825132;78;21590;-77
2022/07/17 10:32:35;;;;;;;4.00;0.57;;;;;;;19.78;42.79;99633.56;1825321;78;21090;-77
2022/07/17 10:35:11;;;;;;;1.65;0.78;;;;;;;19.60;43.34;99623.20;1825061;78;21600;-78
2022/07/17 10:37:40;;;;;;;5.58;0.60;;;;;;;19.57;44.20;99626.55;1825195;78;21119;-77
2022/07/17 10:40:23;;;;;;;1.22;0.60;;;;;;;19.64;44.09;99628.69;1824849;78;21047;-77
2022/07/17 10:43:01;;;;;;;2.17;0.50;;;;;;;19.62;43.76;99641.78;1829202;77;21066;-77
2022/07/17 10:45:39;;;;;;;0.90;0.70;;;;;;;19.46;43.46;99619.30;1746916;82;20996;-76
2022/07/17 10:48:16;;;;;;;3.50;0.60;;;;;;;19.30;45.18;99611.53;1778208;80;21019;-76
2022/07/17 10:50:48;;;;;;;2.92;0.80;;;;;;;19.23;45.08;99621.77;1777984;80;21102;-77
2022/07/17 10:53:23;;;;;;;0.70;0.70;;;;;;;19.16;45.39;99617.80;1778064;80;21153;-76
2022/07/17 10:55:56;;;;;;;0.98;0.88;;;;;;;19.17;46.47;99618.67;1777791;80;21155;-76
2022/07/17 10:58:37;;;;;;;1.30;0.60;;;;;;;19.34;48.12;99612.17;1778149;80;21063;-76
2022/07/17 11:01:16;;;;;;;1.22;0.60;;;;;;;19.53;46.34;99614.39;1776684;80;21137;-77
2022/07/17 11:03:50;;;;;;;0.88;0.40;;;;;;;19.65;45.16;99615.73;1778096;80;21051;-77
2022/07/17 11:06:23;;;;;;;0.40;0.40;;;;;;;19.71;45.59;99610.91;1777948;80;21526;-77
2022/07/17 11:09:03;;;;;;;0.95;0.40;;;;;;;19.80;45.93;99620.95;1778263;80;21089;-77
2022/07/17 11:11:51;;;;;;;0.55;0.45;;;;;;;19.81;44.09;99602.16;1777933;80;21102;-77
2022/07/17 11:14:25;;;;;;;1.65;0.70;;;;;;;19.73;43.90;99614.32;1777989;80;21083;-77
2022/07/17 11:16:56;;;;;;;2.20;0.50;;;;;;;19.56;44.72;99623.03;1776798;80;21174;-77
2022/07/17 11:19:38;;;;;;;0.60;0.60;;;;;;;19.36;44.56;99620.91;1769140;81;21400;-77
2022/07/17 11:22:07;;;;;;;3.33;0.50;;;;;;;19.18;45.69;99623.91;1769176;81;21137;-77
2022/07/17 11:24:47;;;;;;;1.30;0.60;;;;;;;18.99;45.54;99640.77;1769442;81;21107;-77
2022/07/17 11:27:28;;;;;;;2.45;0.80;;;;;;;18.79;46.14;99634.08;1769138;81;21067;-77
2022/07/17 11:29:56;;;;;;;2.67;0.70;;;;;;;18.67;47.05;99635.75;1769267;81;21626;-77
2022/07/17 11:32:25;;;;;;;0.75;0.50;;;;;;;18.66;48.30;99627.36;1768857;81;21050;-78
2022/07/17 11:34:51;;;;;;;2.02;0.70;;;;;;;18.59;48.69;99638.06;1769340;81;21772;-77
2022/07/17 11:37:21;;;;;;;3.60;0.60;;;;;;;18.50;49.85;99648.37;1769010;81;21481;-76
2022/07/17 11:39:49;;;;;;;4.95;0.82;;;;;;;18.47;50.10;99643.72;1769320;81;21000;-77